Time;durP1;ratioP1;P1;durP2;ratioP2;P2;SDS_P1;SDS_P2;PMS_P1;PMS_P2;Temp;Humidity;BMP_temperature;BMP_pressure;BME280_temperature;BME280_humidity;BME280_pressure;Samples;Min_cycle;Max_cycle;Signal;HPM_P1;HPM_P2
2021/11/06 00:00:24;;;;;;;7.25;5.00;;;;;;;12.69;78.95;99091.44;4928617;29;20051;-51
2021/11/06 00:02:51;;;;;;;7.85;4.35;;;;;;;12.68;78.44;99070.63;4920925;29;20130;-46
2021/11/06 00:05:17;;;;;;;9.40;4.15;;;;;;;12.64;78.18;99062.13;4915015;29;20036;-51
2021/11/06 00:07:43;;;;;;;7.53;4.72;;;;;;;12.54;78.67;99058.31;4906730;29;20513;-50
2021/11/06 00:10:10;;;;;;;8.32;4.57;;;;;;;12.51;78.63;99061.06;4934856;29;20547;-55
2021/11/06 00:12:37;;;;;;;8.63;4.22;;;;;;;12.61;78.90;99087.53;4907752;29;20044;-53
2021/11/06 00:15:06;;;;;;;9.40;5.03;;;;;;;12.61;78.86;99088.34;4934660;29;20043;-48
2021/11/06 00:17:33;;;;;;;10.45;5.45;;;;;;;12.63;79.15;99081.31;4930695;29;20047;-50
2021/11/06 00:19:59;;;;;;;7.63;4.70;;;;;;;12.62;79.19;99084.00;4927309;29;20142;-48
2021/11/06 00:22:25;;;;;;;9.82;4.97;;;;;;;12.61;79.23;99077.13;4901852;29;20040;-45
2021/11/06 00:24:51;;;;;;;7.70;5.38;;;;;;;12.60;79.08;99071.06;4918846;29;20044;-46
2021/11/06 00:27:17;;;;;;;9.63;5.72;;;;;;;12.54;79.07;99044.44;4930312;29;20043;-48
2021/11/06 00:29:43;;;;;;;7.90;5.00;;;;;;;12.59;79.05;99058.09;4917665;29;20050;-44
2021/11/06 00:32:09;;;;;;;10.98;6.03;;;;;;;12.63;79.00;99057.00;4925403;29;20055;-44
2021/11/06 00:34:36;;;;;;;8.43;5.40;;;;;;;12.61;78.93;99056.25;4916781;29;20044;-50
2021/11/06 00:37:02;;;;;;;9.82;5.32;;;;;;;12.58;78.75;99065.06;4940666;29;20035;-52
2021/11/06 00:39:28;;;;;;;10.00;5.90;;;;;;;12.56;78.79;99059.06;4932031;29;20485;-50
2021/11/06 00:41:54;;;;;;;9.50;5.53;;;;;;;12.55;78.42;99072.22;4926441;29;20132;-53
2021/11/06 00:44:22;;;;;;;9.68;5.90;;;;;;;12.53;78.61;99066.22;4917796;29;20047;-50
2021/11/06 00:46:49;;;;;;;10.73;6.18;;;;;;;12.50;78.05;99058.56;4938113;29;20047;-50
2021/11/06 00:49:15;;;;;;;11.23;6.20;;;;;;;12.51;78.27;99061.06;4931584;29;20043;-50
2021/11/06 00:51:41;;;;;;;11.57;6.13;;;;;;;12.53;78.36;99055.78;4925250;29;20052;-50
2021/11/06 00:54:06;;;;;;;10.88;5.93;;;;;;;12.55;77.92;99060.03;4917803;29;20051;-47
2021/11/06 00:56:33;;;;;;;8.15;4.93;;;;;;;12.47;77.53;99045.69;4928184;29;20471;-47
2021/11/06 00:58:59;;;;;;;9.65;5.85;;;;;;;12.51;76.94;99065.47;4915476;29;20055;-48
2021/11/06 01:01:25;;;;;;;12.75;6.70;;;;;;;12.49;77.29;99062.09;4929771;29;20556;-49
2021/11/06 01:03:51;;;;;;;10.55;6.22;;;;;;;12.49;77.02;99064.69;4930006;29;20176;-50
2021/11/06 01:06:17;;;;;;;13.43;5.95;;;;;;;12.40;76.86;99060.81;4923815;29;20063;-49
2021/11/06 01:08:43;;;;;;;12.05;6.07;;;;;;;12.49;77.01;99065.53;4911722;29;20082;-50
2021/11/06 01:11:09;;;;;;;10.90;5.80;;;;;;;12.47;77.01;99071.75;4928921;29;20051;-53
2021/11/06 01:13:36;;;;;;;11.68;6.38;;;;;;;12.45;77.12;99065.78;4923218;29;20080;-52
2021/11/06 01:16:02;;;;;;;12.80;6.55;;;;;;;12.45;77.36;99074.47;4932898;29;20036;-48
2021/11/06 01:18:28;;;;;;;9.48;6.03;;;;;;;12.45;77.19;99060.56;4911258;29;20056;-51
2021/11/06 01:20:54;;;;;;;10.57;6.53;;;;;;;12.37;76.42;99068.78;4930805;29;20543;-48
2021/11/06 01:23:20;;;;;;;11.07;6.18;;;;;;;12.29;76.40;99073.56;4916276;29;20046;-47
2021/11/06 01:25:46;;;;;;;8.70;5.78;;;;;;;12.18;75.30;99078.47;4908376;29;20240;-48
2021/11/06 01:28:12;;;;;;;9.38;5.60;;;;;;;12.20;74.30;99081.81;4940405;29;20043;-47
2021/11/06 01:30:38;;;;;;;9.45;5.75;;;;;;;12.12;73.90;99076.16;4940486;29;20173;-52
2021/11/06 01:33:04;;;;;;;9.55;5.00;;;;;;;12.09;72.46;99105.00;4917830;29;20122;-51
2021/11/06 01:35:30;;;;;;;10.07;4.93;;;;;;;12.07;72.63;99092.03;4925961;29;20050;-52
2021/11/06 01:37:59;;;;;;;8.63;5.65;;;;;;;12.04;72.86;99086.94;4929330;29;20039;-49
2021/11/06 01:40:26;;;;;;;10.23;6.30;;;;;;;12.06;73.01;99087.72;4927524;29;20044;-50
2021/11/06 01:42:52;;;;;;;10.90;5.68;;;;;;;11.99;72.58;99085.50;4934172;29;20239;-51
2021/11/06 01:45:20;;;;;;;9.27;4.47;;;;;;;11.86;72.71;99069.66;4918516;29;20047;-51
2021/11/06 01:47:46;;;;;;;13.25;6.43;;;;;;;11.80;72.94;99076.00;4923566;29;20084;-49
2021/11/06 01:50:13;;;;;;;8.93;5.63;;;;;;;11.72;72.94;99066.84;4928609;29;20527;-48
2021/11/06 01:52:39;;;;;;;10.25;5.68;;;;;;;11.69;72.68;99074.78;4895945;29;20063;-47
2021/11/06 01:55:07;;;;;;;10.38;5.10;;;;;;;11.67;72.96;99082.66;4926324;29;20071;-50
2021/11/06 01:57:34;;;;;;;5.07;3.50;;;;;;;11.72;72.91;99062.47;4924125;29;20032;-49
2021/11/06 02:00:00;;;;;;;10.18;5.53;;;;;;;11.64;73.21;99058.56;4917291;29;20047;-50
2021/11/06 02:02:30;;;;;;;10.65;5.45;;;;;;;11.58;73.69;99064.91;4927476;29;20543;-48
2021/11/06 02:04:56;;;;;;;10.30;6.30;;;;;;;11.62;73.61;99081.25;4909766;29;20046;-47
2021/11/06 02:07:22;;;;;;;6.07;3.70;;;;;;;11.57;74.02;99062.34;4916885;29;20040;-50
2021/11/06 02:09:48;;;;;;;10.90;5.82;;;;;;;11.53;74.50;99059.06;4929111;29;20476;-46
2021/11/06 02:12:14;;;;;;;6.53;4.18;;;;;;;11.55;74.37;99072.88;4923708;29;20046;-48
2021/11/06 02:14:40;;;;;;;6.90;4.53;;;;;;;11.46;74.02;99068.94;4914899;29;20653;-49
2021/11/06 02:17:06;;;;;;;9.40;5.60;;;;;;;11.46;74.16;99086.34;4908752;29;20036;-50
2021/11/06 02:19:32;;;;;;;10.63;5.55;;;;;;;11.45;73.81;99087.25;4932121;29;20050;-48
2021/11/06 02:21:59;;;;;;;6.95;3.80;;;;;;;11.42;73.21;99093.41;4931376;29;20043;-49
2021/11/06 02:24:26;;;;;;;11.45;5.70;;;;;;;11.38;73.31;99093.63;4928551;29;20043;-50
2021/11/06 02:26:53;;;;;;;9.35;5.45;;;;;;;11.38;73.05;99104.91;4912650;29;20423;-49
2021/11/06 02:29:19;;;;;;;8.15;4.28;;;;;;;11.34;72.12;99099.91;4914583;29;20074;-53
2021/11/06 02:31:45;;;;;;;15.73;4.38;;;;;;;11.32;71.25;99104.34;4933080;29;20039;-45
2021/11/06 02:34:11;;;;;;;8.20;4.20;;;;;;;11.28;70.86;99095.84;4937408;29;20044;-53
2021/11/06 02:36:38;;;;;;;8.65;4.45;;;;;;;11.21;70.61;99093.56;4916835;29;20039;-47
2021/11/06 02:39:06;;;;;;;7.30;4.15;;;;;;;11.20;70.74;99092.72;4930485;29;20051;-47
2021/11/06 02:41:32;;;;;;;4.30;2.70;;;;;;;11.16;70.27;99088.59;4920857;29;20039;-47
2021/11/06 02:44:00;;;;;;;7.97;4.55;;;;;;;11.10;70.85;99081.06;4921933;29;20055;-47
2021/11/06 02:46:26;;;;;;;6.45;4.22;;;;;;;11.10;70.37;99082.81;4933145;29;20044;-53
2021/11/06 02:48:52;;;;;;;5.85;3.83;;;;;;;11.00;70.34;99085.84;4949294;29;20043;-46
2021/11/06 02:51:18;;;;;;;7.38;3.60;;;;;;;10.88;69.64;99085.56;4950377;29;20064;-49
2021/11/06 02:53:43;;;;;;;7.13;4.35;;;;;;;10.76;70.39;99078.31;4940579;29;20627;-48
2021/11/06 02:56:09;;;;;;;3.70;2.50;;;;;;;10.50;67.29;99097.66;4939862;29;20036;-49
2021/11/06 02:58:35;;;;;;;3.67;2.55;;;;;;;10.27;66.01;99096.03;4933380;29;20419;-49
2021/11/06 03:01:02;;;;;;;2.67;2.42;;;;;;;10.07;65.80;99076.06;4943773;29;20050;-49
2021/11/06 03:03:28;;;;;;;4.30;2.10;;;;;;;9.94;65.54;99106.06;4933162;29;20054;-51
2021/11/06 03:05:54;;;;;;;4.53;2.60;;;;;;;9.84;66.56;99096.94;4936334;29;20039;-52
2021/11/06 03:08:21;;;;;;;3.40;2.03;;;;;;;9.70;66.93;99078.50;4943384;29;20047;-47
2021/11/06 03:10:47;;;;;;;3.70;2.60;;;;;;;9.68;67.00;99088.91;4936053;29;20114;-48
2021/11/06 03:13:13;;;;;;;2.22;1.88;;;;;;;9.56;67.23;99084.25;4929809;29;20048;-50
2021/11/06 03:15:39;;;;;;;3.20;2.10;;;;;;;9.40;67.25;99062.41;4923062;29;20043;-51
2021/11/06 03:18:05;;;;;;;3.85;2.25;;;;;;;9.35;67.54;99064.34;4933104;29;20074;-49
2021/11/06 03:20:32;;;;;;;3.25;2.45;;;;;;;9.29;67.96;99075.78;4915855;29;20490;-48
2021/11/06 03:22:58;;;;;;;3.35;2.20;;;;;;;9.16;68.00;99061.59;4937772;29;20050;-49
2021/11/06 03:25:27;;;;;;;2.75;2.15;;;;;;;9.19;68.07;99065.81;4950639;29;20058;-48
2021/11/06 03:27:53;;;;;;;4.38;2.70;;;;;;;9.06;68.14;99056.81;4941353;29;20542;-51
2021/11/06 03:30:19;;;;;;;2.75;2.00;;;;;;;9.04;68.33;99064.69;4932660;29;20134;-47
2021/11/06 03:32:45;;;;;;;4.65;2.83;;;;;;;9.04;68.23;99074.19;4941706;29;20427;-48
2021/11/06 03:35:12;;;;;;;3.25;2.65;;;;;;;9.04;68.44;99085.41;4931988;29;20051;-49
2021/11/06 03:37:38;;;;;;;2.83;2.20;;;;;;;8.99;68.21;99084.75;4932061;29;20039;-50
2021/11/06 03:40:05;;;;;;;3.53;2.60;;;;;;;8.98;68.55;99083.06;4931174;29;20419;-46
2021/11/06 03:42:31;;;;;;;3.60;2.33;;;;;;;8.95;68.82;99062.41;4937100;29;20043;-49
2021/11/06 03:44:56;;;;;;;3.33;2.40;;;;;;;8.98;69.30;99062.31;4928031;29;20586;-49
2021/11/06 03:47:23;;;;;;;3.33;2.90;;;;;;;9.02;68.45;99058.69;4915231;29;20046;-47
2021/11/06 03:49:50;;;;;;;3.17;2.60;;;;;;;9.04;68.42;99066.41;4931787;29;20043;-49
2021/11/06 03:52:16;;;;;;;3.45;2.55;;;;;;;9.04;68.29;99061.22;4936364;29;20074;-51
2021/11/06 03:54:42;;;;;;;3.83;2.25;;;;;;;9.03;68.22;99073.34;4938280;29;20188;-47
2021/11/06 03:57:09;;;;;;;4.35;2.80;;;;;;;9.09;68.41;99067.09;4932139;29;20130;-49
2021/11/06 03:59:35;;;;;;;3.63;2.70;;;;;;;9.13;68.49;99077.28;4942099;29;20131;-48
2021/11/06 04:02:02;;;;;;;3.75;2.30;;;;;;;9.12;68.55;99090.28;4932460;29;20090;-50
2021/11/06 04:04:28;;;;;;;4.35;3.05;;;;;;;9.09;68.55;99065.34;4936220;29;20047;-49
2021/11/06 04:06:54;;;;;;;3.72;2.60;;;;;;;9.11;68.53;99065.25;4942401;29;20039;-48
2021/11/06 04:09:20;;;;;;;3.55;2.28;;;;;;;9.10;69.00;99067.03;4939122;29;20054;-51
2021/11/06 04:11:45;;;;;;;2.25;1.88;;;;;;;9.12;68.82;99070.41;4925883;29;20044;-51
2021/11/06 04:14:11;;;;;;;2.85;2.40;;;;;;;9.14;68.56;99050.44;4928052;29;20468;-46
2021/11/06 04:16:37;;;;;;;3.35;2.53;;;;;;;9.11;68.50;99052.28;4941520;29;20047;-48
2021/11/06 04:19:03;;;;;;;3.38;2.03;;;;;;;9.11;68.96;99066.13;4932697;29;20043;-51
2021/11/06 04:21:30;;;;;;;3.22;2.20;;;;;;;9.09;69.20;99054.13;4950668;29;20098;-50
2021/11/06 04:23:56;;;;;;;3.50;2.63;;;;;;;9.05;68.75;99057.75;4941818;29;20539;-50
2021/11/06 04:26:22;;;;;;;4.95;2.63;;;;;;;9.09;69.20;99069.69;4935313;29;20047;-48
2021/11/06 04:28:47;;;;;;;2.90;2.35;;;;;;;9.06;69.12;99075.81;4926563;29;20134;-50
2021/11/06 04:31:13;;;;;;;3.15;2.30;;;;;;;9.05;69.57;99081.09;4939686;29;20529;-50
2021/11/06 04:33:39;;;;;;;2.83;2.03;;;;;;;9.05;69.73;99068.13;4942314;29;20431;-49
2021/11/06 04:36:08;;;;;;;3.90;2.70;;;;;;;9.04;69.68;99069.00;4933056;29;20067;-49
2021/11/06 04:38:33;;;;;;;4.95;2.72;;;;;;;9.02;69.74;99063.03;4943295;29;20040;-51
2021/11/06 04:40:59;;;;;;;3.60;2.40;;;;;;;8.88;69.71;99054.03;4934393;29;20531;-47
2021/11/06 04:43:25;;;;;;;2.72;2.42;;;;;;;9.04;69.94;99063.81;4939486;29;20054;-51
2021/11/06 04:45:51;;;;;;;3.42;2.35;;;;;;;8.97;69.84;99068.38;4942887;29;20046;-49
2021/11/06 04:48:16;;;;;;;3.05;2.72;;;;;;;8.92;69.60;99055.59;4914587;29;20044;-48
2021/11/06 04:50:42;;;;;;;2.78;2.47;;;;;;;8.94;69.06;99081.47;4946828;29;20105;-48
2021/11/06 04:53:08;;;;;;;2.45;1.90;;;;;;;8.87;69.66;99080.00;4950286;28;20070;-48
2021/11/06 04:55:34;;;;;;;3.65;2.78;;;;;;;8.83;70.17;99081.03;4932965;29;20043;-50
2021/11/06 04:58:00;;;;;;;2.75;2.45;;;;;;;8.81;70.17;99062.09;4936684;29;20039;-50
2021/11/06 05:00:26;;;;;;;3.67;3.05;;;;;;;8.82;70.17;99051.66;4931427;29;20053;-51
2021/11/06 05:02:52;;;;;;;3.97;2.92;;;;;;;8.82;69.92;99049.06;4935747;29;20039;-51
2021/11/06 05:05:18;;;;;;;3.53;2.78;;;;;;;8.76;70.52;99067.44;4923296;29;20126;-52
2021/11/06 05:07:44;;;;;;;4.28;2.80;;;;;;;8.86;70.84;99068.78;4952511;29;20039;-47
2021/11/06 05:10:10;;;;;;;3.85;3.00;;;;;;;8.93;70.25;99078.03;4954157;29;20043;-53
2021/11/06 05:12:36;;;;;;;3.10;2.30;;;;;;;8.91;70.27;99069.47;4950025;29;20039;-50
2021/11/06 05:15:04;;;;;;;4.13;2.85;;;;;;;8.82;70.54;99056.84;4944842;29;20065;-49
2021/11/06 05:17:29;;;;;;;2.47;1.83;;;;;;;8.98;70.48;99064.91;4935241;29;20047;-51
2021/11/06 05:19:57;;;;;;;6.10;2.80;;;;;;;8.96;69.82;99051.13;4934657;29;20467;-48
2021/11/06 05:22:23;;;;;;;2.55;2.05;;;;;;;8.98;70.30;99053.69;4951167;29;20043;-50
2021/11/06 05:24:49;;;;;;;3.85;2.85;;;;;;;8.90;70.14;99031.47;4913752;29;20476;-49
2021/11/06 05:27:15;;;;;;;3.28;2.63;;;;;;;8.85;70.20;99043.78;4932003;29;20105;-48
2021/11/06 05:29:41;;;;;;;3.58;2.50;;;;;;;8.86;70.72;99042.03;4936933;29;20515;-46
2021/11/06 05:32:07;;;;;;;4.32;2.45;;;;;;;8.88;70.10;99022.94;4937485;29;20067;-47
2021/11/06 05:34:33;;;;;;;4.53;2.75;;;;;;;8.89;70.56;99009.06;4944962;29;20043;-48
2021/11/06 05:36:59;;;;;;;5.95;2.90;;;;;;;8.86;70.91;99022.13;4953432;29;20129;-46
2021/11/06 05:39:25;;;;;;;2.67;1.80;;;;;;;8.87;70.78;99030.75;4935631;29;20049;-49
2021/11/06 05:41:51;;;;;;;5.20;2.53;;;;;;;8.82;70.50;99033.53;4933136;29;20434;-47
2021/11/06 05:44:16;;;;;;;4.50;2.72;;;;;;;8.87;70.47;99028.16;4943434;29;20043;-51
2021/11/06 05:46:42;;;;;;;5.13;2.90;;;;;;;8.96;70.58;99040.78;4934275;29;20055;-51
2021/11/06 05:49:08;;;;;;;3.38;2.28;;;;;;;8.97;70.29;99041.63;4917599;29;20071;-47
2021/11/06 05:51:34;;;;;;;8.15;2.85;;;;;;;8.98;70.44;99035.53;4923425;29;20176;-50
2021/11/06 05:54:00;;;;;;;3.92;2.72;;;;;;;9.02;70.19;99030.16;4929418;29;20040;-49
2021/11/06 05:56:26;;;;;;;3.05;2.60;;;;;;;9.05;70.39;99034.41;4933654;29;20097;-50
2021/11/06 05:58:52;;;;;;;2.88;2.67;;;;;;;9.04;69.86;99020.59;4916488;29;20044;-51
2021/11/06 06:01:18;;;;;;;2.83;2.33;;;;;;;8.98;70.19;99018.25;4939848;29;20043;-47
2021/11/06 06:03:44;;;;;;;3.92;2.50;;;;;;;8.98;70.20;99041.56;4930718;29;20183;-50
2021/11/06 06:06:10;;;;;;;6.82;2.92;;;;;;;8.98;70.27;99028.59;4952254;29;20134;-51
2021/11/06 06:08:36;;;;;;;2.25;1.92;;;;;;;8.87;69.85;99041.13;4929739;29;20082;-48
2021/11/06 06:11:02;;;;;;;3.08;2.00;;;;;;;8.92;70.00;99063.38;4916961;29;20134;-50
2021/11/06 06:13:29;;;;;;;3.10;2.20;;;;;;;8.88;70.36;99118.00;4932802;29;20039;-49
2021/11/06 06:15:55;;;;;;;4.68;2.80;;;;;;;8.88;70.40;99077.38;4949323;29;20049;-50
2021/11/06 06:18:21;;;;;;;4.05;2.33;;;;;;;8.90;70.85;99065.19;4950623;29;20065;-50
2021/11/06 06:20:47;;;;;;;2.97;2.13;;;;;;;8.86;70.58;99068.78;4934976;29;20043;-49
2021/11/06 06:23:14;;;;;;;3.35;1.63;;;;;;;8.87;70.66;99060.13;4944000;29;20050;-46
2021/11/06 06:25:40;;;;;;;3.22;2.60;;;;;;;8.88;70.39;99051.44;4929665;29;20044;-50
2021/11/06 06:28:06;;;;;;;3.35;2.63;;;;;;;8.84;70.57;99055.06;4935957;29;20579;-47
2021/11/06 06:30:35;;;;;;;4.22;2.80;;;;;;;8.84;70.64;99031.72;4946715;29;20052;-52
2021/11/06 06:33:01;;;;;;;5.57;2.60;;;;;;;8.85;71.09;99035.16;4933214;29;20043;-47
2021/11/06 06:35:29;;;;;;;3.53;2.53;;;;;;;8.87;70.93;99030.75;4934354;29;20043;-52
2021/11/06 06:38:00;;;;;;;3.25;2.72;;;;;;;8.89;70.94;99021.19;4916314;29;20046;-48
2021/11/06 06:40:26;;;;;;;3.50;2.38;;;;;;;8.79;70.73;98993.94;4934424;29;20039;-50
2021/11/06 06:42:52;;;;;;;3.90;2.15;;;;;;;8.88;70.71;98978.88;4939106;29;20644;-49
2021/11/06 06:45:19;;;;;;;2.70;2.35;;;;;;;9.02;69.98;99008.59;4944244;29;20119;-48
2021/11/06 06:47:45;;;;;;;4.15;2.45;;;;;;;9.03;70.23;98997.31;4939276;29;20090;-48
2021/11/06 06:50:12;;;;;;;3.53;2.50;;;;;;;8.97;70.27;98980.25;4944070;29;20516;-49
2021/11/06 06:52:39;;;;;;;2.17;1.70;;;;;;;8.82;70.21;98989.47;4911780;29;20060;-49
2021/11/06 06:55:06;;;;;;;2.95;1.90;;;;;;;8.93;70.55;99027.94;4918300;29;20085;-53
2021/11/06 06:57:32;;;;;;;3.53;2.72;;;;;;;8.91;70.60;99020.22;4940299;29;20058;-49
2021/11/06 06:59:58;;;;;;;2.72;2.15;;;;;;;8.93;71.05;99025.34;4934001;29;20044;-46
2021/11/06 07:02:24;;;;;;;2.85;2.30;;;;;;;8.97;70.49;99024.31;4916218;29;20195;-48
2021/11/06 07:04:49;;;;;;;3.67;2.28;;;;;;;8.91;70.86;99011.59;4948113;29;20051;-47
2021/11/06 07:07:16;;;;;;;3.88;2.30;;;;;;;9.01;70.69;99020.69;4932562;29;20428;-50
2021/11/06 07:09:42;;;;;;;2.78;2.25;;;;;;;9.08;70.23;99034.28;4943769;29;20071;-49
2021/11/06 07:12:09;;;;;;;4.18;2.78;;;;;;;9.13;70.10;99027.16;4932821;29;20048;-51
2021/11/06 07:14:35;;;;;;;5.93;2.38;;;;;;;9.11;70.20;99016.84;4936196;29;20052;-50
2021/11/06 07:17:01;;;;;;;4.20;2.40;;;;;;;9.13;70.30;99028.00;4934710;29;20107;-48
2021/11/06 07:19:27;;;;;;;4.45;1.75;;;;;;;9.16;70.35;99032.25;4935635;29;20047;-48
2021/11/06 07:21:53;;;;;;;3.65;2.40;;;;;;;9.17;69.75;99026.13;4932137;29;20094;-49
2021/11/06 07:24:19;;;;;;;5.68;2.58;;;;;;;9.08;70.00;99026.50;4941068;29;20043;-50
2021/11/06 07:26:45;;;;;;;4.68;2.50;;;;;;;9.14;70.45;99037.50;4946816;29;20486;-48
2021/11/06 07:29:11;;;;;;;3.00;1.88;;;;;;;9.15;70.88;99041.78;4930907;29;20078;-49
2021/11/06 07:31:37;;;;;;;4.93;1.65;;;;;;;9.17;70.06;99039.09;4914410;29;20159;-51
2021/11/06 07:34:03;;;;;;;2.85;2.30;;;;;;;9.07;70.35;99030.00;4915195;29;20602;-50
2021/11/06 07:36:29;;;;;;;2.10;1.90;;;;;;;9.16;70.18;99035.66;4924114;29;20054;-50
2021/11/06 07:38:55;;;;;;;3.05;2.33;;;;;;;9.16;70.55;99035.66;4914329;29;20090;-50
2021/11/06 07:41:22;;;;;;;2.72;1.95;;;;;;;9.18;70.30;99048.56;4940759;29;20046;-49
2021/11/06 07:43:48;;;;;;;2.90;2.10;;;;;;;9.14;70.80;99027.13;4938330;29;20102;-50
2021/11/06 07:46:14;;;;;;;3.00;1.90;;;;;;;9.16;70.15;99025.28;4939218;29;20070;-48
2021/11/06 07:48:40;;;;;;;4.47;2.30;;;;;;;9.19;70.62;99027.78;4944292;29;20138;-47
2021/11/06 07:51:06;;;;;;;3.53;2.13;;;;;;;9.23;70.64;99018.97;4933271;29;20131;-50
2021/11/06 07:53:32;;;;;;;3.33;2.17;;;;;;;9.18;70.50;98994.13;4906910;29;20036;-50
2021/11/06 07:55:58;;;;;;;3.20;1.63;;;;;;;9.31;69.78;99019.53;4930794;29;20046;-44
2021/11/06 07:58:23;;;;;;;6.90;2.50;;;;;;;9.33;69.75;99009.91;4946817;29;20039;-45
2021/11/06 08:00:49;;;;;;;2.58;1.67;;;;;;;9.42;69.71;99008.69;4918996;29;20100;-43
2021/11/06 08:03:16;;;;;;;4.88;2.53;;;;;;;9.42;69.89;99019.06;4932309;29;20040;-46
2021/11/06 08:05:42;;;;;;;3.25;1.85;;;;;;;9.44;69.75;99027.63;4942772;29;20050;-45
2021/11/06 08:08:09;;;;;;;4.57;2.30;;;;;;;9.42;69.55;99013.06;4927202;29;20114;-45
2021/11/06 08:10:35;;;;;;;2.05;1.75;;;;;;;9.34;69.92;99018.53;4932523;29;20595;-46
2021/11/06 08:13:05;;;;;;;1.95;1.45;;;;;;;9.40;69.69;99020.91;4931598;29;20047;-46
2021/11/06 08:15:31;;;;;;;2.75;2.30;;;;;;;9.41;69.56;99020.00;4919893;29;20515;-47
2021/11/06 08:17:57;;;;;;;3.38;2.15;;;;;;;9.32;70.01;99026.38;4929393;29;20039;-48
2021/11/06 08:20:24;;;;;;;5.75;2.00;;;;;;;9.35;69.91;99020.22;4914838;29;20051;-47
2021/11/06 08:22:51;;;;;;;2.40;2.20;;;;;;;9.33;70.52;99012.50;4941107;29;20074;-43
2021/11/06 08:25:18;;;;;;;2.85;1.92;;;;;;;9.31;70.42;99000.53;4929782;29;20099;-48
2021/11/06 08:27:45;;;;;;;1.90;1.70;;;;;;;9.29;70.13;99013.53;4928232;29;20044;-47
2021/11/06 08:30:11;;;;;;;3.67;2.20;;;;;;;9.66;69.80;99004.25;4932413;29;20047;-47
2021/11/06 08:32:37;;;;;;;4.82;1.88;;;;;;;9.84;68.55;98981.91;4918661;29;20148;-49
2021/11/06 08:35:04;;;;;;;2.80;1.85;;;;;;;9.78;68.82;98990.78;4917152;29;20516;-53
2021/11/06 08:37:29;;;;;;;2.40;1.80;;;;;;;9.55;69.51;98980.50;4917618;29;20043;-50
2021/11/06 08:39:56;;;;;;;2.97;2.13;;;;;;;9.48;69.64;98982.50;4918527;29;20560;-54
2021/11/06 08:42:21;;;;;;;7.63;1.75;;;;;;;9.40;69.83;98989.75;4933630;29;20043;-49
2021/11/06 08:44:48;;;;;;;2.63;1.50;;;;;;;9.36;70.07;98998.59;4927648;29;20044;-51
2021/11/06 08:47:14;;;;;;;3.60;2.22;;;;;;;9.38;69.80;98988.97;4928051;29;20041;-48
2021/11/06 08:49:41;;;;;;;3.05;2.10;;;;;;;9.35;70.23;98999.47;4924066;29;20052;-48
2021/11/06 08:52:07;;;;;;;2.78;1.95;;;;;;;9.45;70.47;98990.41;4929768;29;20052;-51
2021/11/06 08:54:33;;;;;;;4.20;2.00;;;;;;;9.42;69.74;98987.13;4915526;29;20043;-48
2021/11/06 08:56:58;;;;;;;1.75;1.38;;;;;;;9.44;69.58;99003.44;4927393;29;22004;-48
2021/11/06 08:59:24;;;;;;;2.63;1.52;;;;;;;9.48;69.84;98982.50;4928098;29;20036;-50
2021/11/06 09:01:53;;;;;;;2.53;2.08;;;;;;;9.54;69.82;98987.44;4916392;29;20129;-50
2021/11/06 09:04:20;;;;;;;2.47;2.00;;;;;;;9.57;69.63;98976.09;4923264;29;20050;-51
2021/11/06 09:06:47;;;;;;;3.13;1.98;;;;;;;9.53;69.75;98990.09;4915736;29;20504;-49
2021/11/06 09:09:14;;;;;;;3.72;2.75;;;;;;;9.45;69.99;98997.34;4931395;29;20428;-49
2021/11/06 09:11:41;;;;;;;2.88;1.92;;;;;;;9.40;70.06;98994.09;4929178;29;20047;-47
2021/11/06 09:14:09;;;;;;;3.08;1.92;;;;;;;9.28;70.03;98991.09;4929257;29;20099;-50
2021/11/06 09:16:35;;;;;;;2.38;1.70;;;;;;;9.27;70.66;98978.19;4932251;29;20091;-49
2021/11/06 09:19:03;;;;;;;2.60;1.92;;;;;;;9.29;70.54;98972.03;4930892;29;20039;-53
2021/11/06 09:21:31;;;;;;;2.50;1.77;;;;;;;9.34;70.51;98970.09;4915415;29;20051;-48
2021/11/06 09:24:02;;;;;;;2.65;1.30;;;;;;;9.42;70.11;98967.19;4928635;29;20058;-46
2021/11/06 09:26:40;;;;;;;2.33;1.50;;;;;;;9.39;70.32;98962.13;4914162;29;20040;-48
2021/11/06 09:29:07;;;;;;;4.95;2.22;;;;;;;9.39;70.89;98962.13;4930930;29;20078;-50
2021/11/06 09:31:34;;;;;;;2.60;1.80;;;;;;;9.37;70.53;98947.56;4923168;29;20040;-49
2021/11/06 09:34:00;;;;;;;1.65;1.15;;;;;;;9.42;70.26;98956.78;4915224;29;20110;-49
2021/11/06 09:36:26;;;;;;;3.47;1.67;;;;;;;9.46;70.48;98931.59;4930823;29;20551;-50
2021/11/06 09:38:52;;;;;;;5.18;2.17;;;;;;;9.66;70.08;98936.78;4912963;29;20542;-47
2021/11/06 09:41:19;;;;;;;2.25;1.45;;;;;;;9.68;68.51;98938.38;4931521;29;20132;-49
2021/11/06 09:43:45;;;;;;;3.92;2.17;;;;;;;9.79;68.81;98927.53;4931821;29;20040;-49
2021/11/06 09:46:13;;;;;;;2.30;1.60;;;;;;;9.98;67.94;98925.84;4913978;29;20475;-47
2021/11/06 09:48:40;;;;;;;2.58;1.80;;;;;;;10.07;66.67;98909.00;4927416;29;20043;-50
2021/11/06 09:51:07;;;;;;;3.20;1.80;;;;;;;10.15;66.44;98912.13;4919290;29;20050;-50
2021/11/06 09:53:40;;;;;;;3.10;1.55;;;;;;;10.27;65.69;98913.34;4926092;29;20039;-49
2021/11/06 09:56:08;;;;;;;3.58;2.03;;;;;;;10.45;65.49;98895.16;4936618;29;20090;-46
2021/11/06 09:58:34;;;;;;;3.08;1.95;;;;;;;10.56;64.66;98905.91;4929488;29;20043;-47
2021/11/06 10:01:01;;;;;;;2.22;1.70;;;;;;;10.45;63.78;98904.72;4938728;29;20041;-49
2021/11/06 10:03:27;;;;;;;1.40;0.98;;;;;;;10.32;63.81;98906.19;4930910;29;20048;-49
2021/11/06 10:06:00;;;;;;;1.85;1.52;;;;;;;10.26;64.13;98902.09;4925294;29;20071;-50
2021/11/06 10:08:39;;;;;;;4.68;2.08;;;;;;;10.22;64.88;98913.56;4931705;29;20043;-47
2021/11/06 10:11:09;;;;;;;4.23;1.80;;;;;;;10.03;65.41;98897.09;4933168;29;20114;-49
2021/11/06 10:13:57;;;;;;;4.82;1.83;;;;;;;10.12;64.54;98918.28;4940148;29;20496;-50
2021/11/06 10:16:32;;;;;;;9.70;1.93;;;;;;;10.07;64.79;98909.84;4933491;29;20504;-49
2021/11/06 10:19:46;;;;;;;2.63;1.60;;;;;;;10.10;64.56;98911.50;4933897;29;20310;-51
2021/11/06 10:22:17;;;;;;;4.03;1.60;;;;;;;10.07;63.81;98886.50;4934431;29;20039;-49
2021/11/06 10:24:59;;;;;;;3.22;1.58;;;;;;;10.27;63.51;98901.19;4916026;29;20052;-54
2021/11/06 10:27:26;;;;;;;2.03;1.20;;;;;;;10.46;62.54;98909.00;4936665;29;20420;-49
2021/11/06 10:30:32;;;;;;;1.85;1.10;;;;;;;10.41;61.90;98910.97;4933747;29;20058;-52
2021/11/06 10:33:16;;;;;;;3.42;1.38;;;;;;;10.39;61.71;98899.78;4935066;29;20046;-53
2021/11/06 10:35:57;;;;;;;1.77;1.00;;;;;;;10.32;61.81;98907.03;4934295;29;20052;-48
2021/11/06 10:38:28;;;;;;;1.48;1.02;;;;;;;10.37;61.78;98893.81;4934355;29;20031;-51
2021/11/06 10:41:07;;;;;;;3.08;1.48;;;;;;;10.43;61.73;98896.97;4924549;29;20099;-50
2021/11/06 10:43:35;;;;;;;2.05;1.17;;;;;;;10.42;61.00;98900.50;4929665;29;20154;-48
2021/11/06 10:46:02;;;;;;;1.40;1.05;;;;;;;10.24;61.59;98911.75;4932378;29;20522;-49
2021/11/06 10:48:35;;;;;;;2.10;1.23;;;;;;;10.09;61.91;98894.22;4913179;29;20039;-55
2021/11/06 10:51:09;;;;;;;3.90;1.48;;;;;;;10.04;61.83;98891.00;4917119;29;20523;-49
2021/11/06 10:53:41;;;;;;;1.55;1.35;;;;;;;10.01;62.12;98904.94;4931480;29;20054;-48
2021/11/06 10:56:13;;;;;;;2.17;1.15;;;;;;;9.97;62.37;98898.19;4917165;29;20058;-48
2021/11/06 10:58:41;;;;;;;2.38;1.30;;;;;;;9.96;62.16;98911.25;4932168;29;20479;-49
2021/11/06 11:01:10;;;;;;;1.25;0.95;;;;;;;9.97;61.90;98907.75;4935992;29;20130;-49
2021/11/06 11:03:38;;;;;;;2.15;1.38;;;;;;;9.92;62.83;98899.31;4930213;29;20039;-52
2021/11/06 11:06:10;;;;;;;1.45;1.13;;;;;;;9.80;63.75;98885.09;4913057;29;20040;-51
2021/11/06 11:08:47;;;;;;;1.40;1.10;;;;;;;9.59;65.21;98880.84;4917430;29;20036;-52
2021/11/06 11:11:13;;;;;;;1.88;1.00;;;;;;;9.55;66.09;98893.13;4920115;29;20139;-48
2021/11/06 11:13:53;;;;;;;3.45;1.30;;;;;;;9.52;66.95;98895.00;4925782;29;20058;-50
2021/11/06 11:16:21;;;;;;;3.60;1.38;;;;;;;9.58;67.57;98902.50;4933722;29;20039;-49
2021/11/06 11:19:02;;;;;;;1.80;1.40;;;;;;;9.50;68.59;98887.28;4925560;29;20134;-49
2021/11/06 11:21:32;;;;;;;2.72;1.50;;;;;;;9.41;69.01;98879.91;4924735;29;20042;-46
2021/11/06 11:24:04;;;;;;;2.15;1.50;;;;;;;9.38;69.79;98894.72;4930297;29;20052;-47
2021/11/06 11:26:48;;;;;;;3.92;1.80;;;;;;;9.38;71.26;98905.09;4926129;29;20044;-53
2021/11/06 11:29:20;;;;;;;1.70;1.33;;;;;;;9.32;72.70;98920.03;4931762;29;20141;-51
2021/11/06 11:31:46;;;;;;;1.88;1.30;;;;;;;9.16;73.50;98925.94;4937183;29;20050;-49
2021/11/06 11:34:12;;;;;;;3.10;1.70;;;;;;;8.98;75.14;98931.84;4934604;29;20046;-48
2021/11/06 11:36:39;;;;;;;1.15;0.90;;;;;;;8.82;74.80;98931.59;4900236;29;20027;-49
2021/11/06 11:39:08;;;;;;;2.15;1.30;;;;;;;8.76;74.97;98924.91;4923674;29;20036;-51